createdAt,value
2022-10-17T00:01:18.287Z,24.50
2022-10-17T00:06:22.094Z,22.80
2022-10-17T00:11:27.327Z,28.67
2022-10-17T00:16:34.215Z,24.00
2022-10-17T00:21:38.002Z,30.58
2022-10-17T00:26:43.190Z,25.38
2022-10-17T00:31:47.043Z,19.05
2022-10-17T00:36:50.841Z,19.35
2022-10-17T00:41:56.692Z,18.05
2022-10-17T00:47:03.694Z,19.30
2022-10-17T00:52:10.259Z,26.75
2022-10-17T00:57:15.963Z,21.73
2022-10-17T01:02:22.241Z,20.38
2022-10-17T01:07:26.427Z,16.27
2022-10-17T01:12:39.246Z,20.55
2022-10-17T01:17:52.685Z,17.92
2022-10-17T01:23:06.211Z,19.75
2022-10-17T01:28:23.263Z,18.95
2022-10-17T01:33:39.545Z,18.05
2022-10-17T01:43:54.194Z,18.48
2022-10-17T01:49:02.375Z,20.33
2022-10-17T01:54:11.128Z,21.77
2022-10-17T01:59:18.707Z,18.08
2022-10-17T02:04:23.968Z,18.58
2022-10-17T02:09:28.578Z,12.45
2022-10-17T02:14:42.331Z,15.48
2022-10-17T02:19:54.564Z,17.75
2022-10-17T02:25:03.293Z,17.88
2022-10-17T02:30:10.409Z,21.90
2022-10-17T02:35:16.317Z,21.05
2022-10-17T02:40:22.521Z,16.80
2022-10-17T02:45:30.599Z,18.95
2022-10-17T02:50:43.312Z,17.92
2022-10-17T02:55:52.807Z,16.98
2022-10-17T03:00:56.671Z,14.65
2022-10-17T03:06:02.132Z,15.82
2022-10-17T03:11:05.976Z,13.60
2022-10-17T03:16:10.540Z,18.52
2022-10-17T03:21:17.138Z,18.85
2022-10-17T03:26:21.210Z,24.27
2022-10-17T03:31:25.287Z,21.63
2022-10-17T03:36:31.613Z,19.20
2022-10-17T03:41:35.534Z,20.80
2022-10-17T03:46:39.612Z,14.50
2022-10-17T03:51:44.873Z,24.95
2022-10-17T03:56:51.724Z,16.02
2022-10-17T04:01:57.022Z,13.93
2022-10-17T04:07:02.283Z,23.23
2022-10-17T04:12:06.713Z,23.07
2022-10-17T04:17:12.908Z,19.67
2022-10-17T04:22:18.206Z,22.15
2022-10-17T04:27:22.083Z,26.77
2022-10-17T04:32:26.909Z,21.10
2022-10-17T04:37:42.387Z,22.77
2022-10-17T04:42:53.434Z,21.02
2022-10-17T04:48:01.650Z,27.42
2022-10-17T04:53:07.075Z,29.52
2022-10-17T04:58:10.993Z,24.17
2022-10-17T05:03:15.230Z,28.10
2022-10-17T05:08:21.332Z,24.23
2022-10-17T05:13:25.252Z,83.17
2022-10-17T05:18:29.045Z,95.57
2022-10-17T05:23:35.347Z,31.33
2022-10-17T05:28:39.392Z,53.33
2022-10-17T05:33:44.318Z,30.13
2022-10-17T05:38:52.142Z,32.50
2022-10-17T05:43:56.079Z,37.03
2022-10-17T05:49:19.590Z,34.83
2022-10-17T05:54:38.169Z,20.38
2022-10-17T05:59:42.270Z,27.77
2022-10-17T06:04:50.420Z,24.73
2022-10-17T06:09:59.087Z,30.58
2022-10-17T06:20:08.755Z,32.58
2022-10-17T06:25:14.077Z,25.60
2022-10-17T06:30:18.819Z,24.85
2022-10-17T06:35:22.864Z,19.65
2022-10-17T06:40:28.121Z,19.58
2022-10-17T06:45:32.052Z,16.23
2022-10-17T06:51:00.154Z,20.10
2022-10-17T06:56:07.135Z,20.83
2022-10-17T07:01:30.046Z,27.60
2022-10-17T07:06:36.290Z,26.60
2022-10-17T07:11:48.018Z,26.27
2022-10-17T07:16:56.632Z,21.27
2022-10-17T07:22:02.063Z,23.75
2022-10-17T07:27:08.440Z,17.50
2022-10-17T07:32:12.294Z,19.23
2022-10-17T07:37:17.241Z,16.95
2022-10-17T07:42:29.552Z,16.48
2022-10-17T07:47:35.859Z,13.18
2022-10-17T07:52:43.314Z,26.00
2022-10-17T07:57:48.795Z,13.38
2022-10-17T08:02:52.576Z,20.77
2022-10-17T08:07:56.346Z,22.42
2022-10-17T08:13:01.514Z,20.25
2022-10-17T08:18:05.456Z,17.63
2022-10-17T08:23:09.235Z,15.85
2022-10-17T08:28:14.417Z,15.32
2022-10-17T08:33:18.221Z,13.23
2022-10-17T08:38:23.307Z,11.65
2022-10-17T08:43:47.717Z,15.98
2022-10-17T08:48:53.107Z,14.02
2022-10-17T08:54:02.756Z,11.50
2022-10-17T08:59:12.945Z,18.95
2022-10-17T09:04:44.027Z,16.35
2022-10-17T09:09:56.490Z,14.90
2022-10-17T09:15:35.835Z,13.15
2022-10-17T09:20:42.984Z,18.35
2022-10-17T09:25:49.415Z,15.65
2022-10-17T09:30:57.841Z,15.32
2022-10-17T09:36:01.803Z,19.00
2022-10-17T09:41:19.944Z,11.90
2022-10-17T09:46:35.596Z,14.63
2022-10-17T09:51:40.544Z,12.50
2022-10-17T09:56:58.434Z,18.90
2022-10-17T10:02:18.376Z,14.95
2022-10-17T10:07:26.903Z,18.88
2022-10-17T10:12:34.354Z,11.48
2022-10-17T10:17:41.935Z,12.98
2022-10-17T10:22:45.734Z,12.98
2022-10-17T10:27:49.527Z,14.90
2022-10-17T10:32:54.780Z,14.38
2022-10-17T10:37:59.929Z,11.68
2022-10-17T10:43:05.638Z,9.20
2022-10-17T10:48:20.765Z,15.43
2022-10-17T10:53:35.171Z,12.85
2022-10-17T10:58:48.550Z,13.40
2022-10-17T11:04:07.462Z,10.30
2022-10-17T11:09:19.737Z,22.80
2022-10-17T11:14:30.091Z,17.73
2022-10-17T11:19:37.633Z,12.77
2022-10-17T11:24:44.387Z,12.07
2022-10-17T11:29:48.159Z,11.52
2022-10-17T11:34:56.077Z,15.48
2022-10-17T11:40:02.902Z,9.18
2022-10-17T11:45:10.977Z,12.07
2022-10-17T11:55:47.915Z,12.82
2022-10-17T12:01:02.280Z,17.08
2022-10-17T12:06:13.420Z,13.67
2022-10-17T12:11:29.439Z,12.73
2022-10-17T12:16:44.349Z,17.25
2022-10-17T12:22:00.969Z,15.45
2022-10-17T12:27:46.044Z,17.85
2022-10-17T12:33:07.408Z,11.93
2022-10-17T12:38:30.870Z,14.88
2022-10-17T12:43:58.034Z,16.73
2022-10-17T12:49:06.363Z,12.82
2022-10-17T12:54:13.626Z,17.13
2022-10-17T12:59:19.317Z,11.75
2022-10-17T13:04:23.609Z,13.32
2022-10-17T13:09:33.296Z,9.60
2022-10-17T13:14:39.403Z,13.23
2022-10-17T13:19:45.744Z,9.10
2022-10-17T13:24:51.736Z,11.75
2022-10-17T13:29:58.608Z,9.68
2022-10-17T13:35:10.532Z,8.50
2022-10-17T13:45:51.571Z,9.27
2022-10-17T13:51:01.734Z,11.90
2022-10-17T13:56:33.945Z,11.82
2022-10-17T14:01:38.909Z,10.73
2022-10-17T14:06:47.602Z,11.98
2022-10-17T14:12:04.375Z,15.30
2022-10-17T14:17:15.106Z,17.42
2022-10-17T14:22:25.110Z,12.15
2022-10-17T14:27:32.652Z,13.90
2022-10-17T14:32:38.011Z,20.50
2022-10-17T14:37:45.071Z,13.20
2022-10-17T14:42:50.896Z,23.27
2022-10-17T14:53:04.188Z,19.00
2022-10-17T14:58:19.718Z,27.02
2022-10-17T15:03:23.714Z,13.18
2022-10-17T15:08:27.518Z,16.15
2022-10-17T15:13:39.913Z,15.85
2022-10-17T15:18:46.000Z,15.82
2022-10-17T15:23:49.920Z,17.05
2022-10-17T15:28:55.980Z,22.67
2022-10-17T15:33:59.798Z,20.35
2022-10-17T15:39:03.948Z,28.65
2022-10-17T15:44:09.269Z,22.92
2022-10-17T15:49:15.474Z,19.80
2022-10-17T15:54:19.296Z,24.50
2022-10-17T15:59:28.715Z,20.13
2022-10-17T16:04:32.518Z,22.58
2022-10-17T16:09:37.372Z,24.45
2022-10-17T16:14:42.628Z,25.58
2022-10-17T16:19:46.770Z,22.60
2022-10-17T16:24:50.542Z,40.88
2022-10-17T16:29:55.712Z,27.65
2022-10-17T16:35:00.081Z,36.57
2022-10-17T16:40:04.494Z,28.05
2022-10-17T16:45:10.566Z,30.45
2022-10-17T16:55:19.455Z,30.00
2022-10-17T17:00:24.658Z,27.73
2022-10-17T17:05:28.550Z,28.77
2022-10-17T17:10:32.331Z,26.15
2022-10-17T17:15:38.511Z,29.88
2022-10-17T17:20:42.510Z,23.45
2022-10-17T17:25:46.389Z,25.23
2022-10-17T17:30:51.551Z,26.48
2022-10-17T17:35:56.642Z,27.35
2022-10-17T17:41:00.556Z,25.33
2022-10-17T17:46:05.889Z,22.95
2022-10-17T17:51:11.134Z,30.43
2022-10-17T17:56:16.109Z,21.83
2022-10-17T18:01:24.076Z,30.17
2022-10-17T18:06:28.551Z,39.63
2022-10-17T18:11:32.573Z,31.30
2022-10-17T18:16:38.454Z,29.48
2022-10-17T18:21:43.058Z,27.83
2022-10-17T18:26:46.843Z,29.83
2022-10-17T18:31:52.294Z,26.50
2022-10-17T18:36:56.218Z,27.27
2022-10-17T18:42:00.049Z,24.05
2022-10-17T18:47:05.237Z,27.58
2022-10-17T18:52:09.060Z,29.15
2022-10-17T18:57:12.858Z,24.77
2022-10-17T19:02:18.043Z,25.05
2022-10-17T19:07:21.883Z,24.10
2022-10-17T19:12:25.720Z,26.48
2022-10-17T19:17:31.210Z,21.92
2022-10-17T19:22:35.171Z,31.85
2022-10-17T19:27:39.017Z,24.27
2022-10-17T19:32:44.584Z,24.65
2022-10-17T19:37:48.395Z,21.77
2022-10-17T19:42:52.248Z,28.08
2022-10-17T19:47:57.433Z,25.27
2022-10-17T19:53:01.224Z,28.25
2022-10-17T19:58:05.109Z,32.05
2022-10-17T20:03:10.292Z,45.33
2022-10-17T20:08:14.471Z,33.47
2022-10-17T20:13:18.287Z,30.08
2022-10-17T20:18:23.651Z,33.63
2022-10-17T20:23:27.450Z,31.47
2022-10-17T20:28:31.420Z,45.38
2022-10-17T20:33:36.666Z,32.55
2022-10-17T20:38:40.794Z,32.58
2022-10-17T20:43:45.605Z,32.97
2022-10-17T20:48:53.816Z,23.40
2022-10-17T20:59:07.705Z,26.42
2022-10-17T21:04:46.210Z,29.58
2022-10-17T21:09:36.946Z,36.97
2022-10-17T21:14:40.774Z,43.10
2022-10-17T21:19:45.954Z,42.83
2022-10-17T21:24:49.725Z,40.28
2022-10-17T21:29:53.553Z,55.85
2022-10-17T21:34:58.743Z,52.15
2022-10-17T21:40:02.587Z,48.30
2022-10-17T21:45:15.214Z,62.55
2022-10-17T21:50:25.307Z,68.18
2022-10-17T21:55:29.126Z,48.30
2022-10-17T22:00:32.893Z,68.07
2022-10-17T22:05:38.066Z,74.47
2022-10-17T22:10:42.102Z,64.50
2022-10-17T22:15:45.870Z,56.67
2022-10-17T22:20:51.029Z,49.05
2022-10-17T22:25:55.068Z,40.95
2022-10-17T22:30:59.103Z,56.65
2022-10-17T22:36:04.846Z,40.83
2022-10-17T22:41:09.130Z,40.42
2022-10-17T22:46:14.947Z,38.38
2022-10-17T22:51:20.447Z,42.10
2022-10-17T22:56:24.594Z,26.63
2022-10-17T23:01:28.424Z,33.55
2022-10-17T23:06:33.699Z,36.70
2022-10-17T23:11:37.483Z,39.78
2022-10-17T23:16:41.259Z,35.10
2022-10-17T23:21:46.539Z,42.03
2022-10-17T23:26:50.331Z,35.65
2022-10-17T23:31:55.619Z,35.70
2022-10-17T23:37:00.782Z,33.92
2022-10-17T23:42:04.589Z,31.95
2022-10-17T23:47:08.395Z,32.25
2022-10-17T23:52:13.579Z,35.20
2022-10-17T23:57:17.365Z,34.83
